sensor_id;sensor_type;location;lat;lon;timestamp;P1;durP1;ratioP1;P2;durP2;ratioP2
28772;SDS011;15925;51.222;5.678;2024-02-21T00:02:12;13.83;;;4.63;;
28772;SDS011;15925;51.222;5.678;2024-02-21T00:04:37;10.57;;;5.10;;
28772;SDS011;15925;51.222;5.678;2024-02-21T00:07:04;23.60;;;6.28;;
28772;SDS011;15925;51.222;5.678;2024-02-21T00:09:30;18.00;;;4.55;;
28772;SDS011;15925;51.222;5.678;2024-02-21T00:11:55;29.10;;;5.00;;
28772;SDS011;15925;51.222;5.678;2024-02-21T00:14:21;11.80;;;5.53;;
28772;SDS011;15925;51.222;5.678;2024-02-21T00:16:47;25.45;;;5.38;;
28772;SDS011;15925;51.222;5.678;2024-02-21T00:19:13;20.40;;;5.87;;
28772;SDS011;15925;51.222;5.678;2024-02-21T00:24:05;23.80;;;6.20;;
28772;SDS011;15925;51.222;5.678;2024-02-21T00:26:31;14.65;;;6.13;;
28772;SDS011;15925;51.222;5.678;2024-02-21T00:28:57;16.17;;;5.50;;
28772;SDS011;15925;51.222;5.678;2024-02-21T00:31:23;13.20;;;4.47;;
28772;SDS011;15925;51.222;5.678;2024-02-21T00:33:49;22.10;;;7.20;;
28772;SDS011;15925;51.222;5.678;2024-02-21T00:36:15;24.25;;;6.40;;
28772;SDS011;15925;51.222;5.678;2024-02-21T00:38:41;29.23;;;5.15;;
28772;SDS011;15925;51.222;5.678;2024-02-21T00:41:07;15.37;;;6.53;;
28772;SDS011;15925;51.222;5.678;2024-02-21T00:43:33;14.13;;;5.17;;
28772;SDS011;15925;51.222;5.678;2024-02-21T00:45:58;23.33;;;5.57;;
28772;SDS011;15925;51.222;5.678;2024-02-21T00:48:24;18.27;;;6.30;;
28772;SDS011;15925;51.222;5.678;2024-02-21T00:50:50;16.70;;;6.53;;
28772;SDS011;15925;51.222;5.678;2024-02-21T00:55:42;10.80;;;4.68;;
28772;SDS011;15925;51.222;5.678;2024-02-21T00:58:08;12.45;;;6.68;;
28772;SDS011;15925;51.222;5.678;2024-02-21T01:00:34;21.20;;;7.22;;
28772;SDS011;15925;51.222;5.678;2024-02-21T01:05:26;10.68;;;5.03;;
28772;SDS011;15925;51.222;5.678;2024-02-21T01:07:54;10.40;;;4.82;;
28772;SDS011;15925;51.222;5.678;2024-02-21T01:10:20;22.75;;;5.30;;
28772;SDS011;15925;51.222;5.678;2024-02-21T01:12:45;28.73;;;5.93;;
28772;SDS011;15925;51.222;5.678;2024-02-21T01:15:11;15.40;;;5.10;;
28772;SDS011;15925;51.222;5.678;2024-02-21T01:17:37;19.73;;;4.67;;
28772;SDS011;15925;51.222;5.678;2024-02-21T01:20:05;20.50;;;5.55;;
28772;SDS011;15925;51.222;5.678;2024-02-21T01:22:32;14.77;;;6.55;;
28772;SDS011;15925;51.222;5.678;2024-02-21T01:24:58;21.83;;;5.57;;
28772;SDS011;15925;51.222;5.678;2024-02-21T01:27:23;22.20;;;5.50;;
28772;SDS011;15925;51.222;5.678;2024-02-21T01:29:49;14.20;;;6.03;;
28772;SDS011;15925;51.222;5.678;2024-02-21T01:32:15;9.57;;;4.70;;
28772;SDS011;15925;51.222;5.678;2024-02-21T01:34:41;14.50;;;5.28;;
28772;SDS011;15925;51.222;5.678;2024-02-21T01:37:07;38.97;;;6.83;;
28772;SDS011;15925;51.222;5.678;2024-02-21T01:39:33;12.17;;;5.77;;
28772;SDS011;15925;51.222;5.678;2024-02-21T01:41:59;20.27;;;5.93;;
28772;SDS011;15925;51.222;5.678;2024-02-21T01:44:25;19.43;;;6.80;;
28772;SDS011;15925;51.222;5.678;2024-02-21T01:46:51;10.43;;;4.28;;
28772;SDS011;15925;51.222;5.678;2024-02-21T01:49:18;22.02;;;6.60;;
28772;SDS011;15925;51.222;5.678;2024-02-21T01:51:45;17.33;;;5.22;;
28772;SDS011;15925;51.222;5.678;2024-02-21T01:54:12;17.40;;;4.78;;
28772;SDS011;15925;51.222;5.678;2024-02-21T01:56:39;13.05;;;4.55;;
28772;SDS011;15925;51.222;5.678;2024-02-21T01:59:05;16.57;;;5.27;;
28772;SDS011;15925;51.222;5.678;2024-02-21T02:01:31;16.47;;;4.83;;
28772;SDS011;15925;51.222;5.678;2024-02-21T02:03:57;16.13;;;6.27;;
28772;SDS011;15925;51.222;5.678;2024-02-21T02:06:24;11.38;;;4.80;;
28772;SDS011;15925;51.222;5.678;2024-02-21T02:08:50;14.07;;;4.75;;
28772;SDS011;15925;51.222;5.678;2024-02-21T02:11:17;16.95;;;4.65;;
28772;SDS011;15925;51.222;5.678;2024-02-21T02:13:43;18.55;;;5.45;;
28772;SDS011;15925;51.222;5.678;2024-02-21T02:16:09;15.63;;;5.45;;
28772;SDS011;15925;51.222;5.678;2024-02-21T02:18:34;16.00;;;7.03;;
28772;SDS011;15925;51.222;5.678;2024-02-21T02:21:00;18.08;;;5.35;;
28772;SDS011;15925;51.222;5.678;2024-02-21T02:23:30;11.57;;;4.87;;
28772;SDS011;15925;51.222;5.678;2024-02-21T02:25:59;25.60;;;5.20;;
28772;SDS011;15925;51.222;5.678;2024-02-21T02:28:28;23.25;;;5.97;;
28772;SDS011;15925;51.222;5.678;2024-02-21T02:30:54;16.87;;;3.70;;
28772;SDS011;15925;51.222;5.678;2024-02-21T02:33:20;14.40;;;4.60;;
28772;SDS011;15925;51.222;5.678;2024-02-21T02:35:46;13.93;;;4.72;;
28772;SDS011;15925;51.222;5.678;2024-02-21T02:38:12;14.73;;;3.63;;
28772;SDS011;15925;51.222;5.678;2024-02-21T02:40:38;15.00;;;5.25;;
28772;SDS011;15925;51.222;5.678;2024-02-21T02:43:05;13.38;;;4.13;;
28772;SDS011;15925;51.222;5.678;2024-02-21T02:45:32;8.70;;;3.38;;
28772;SDS011;15925;51.222;5.678;2024-02-21T02:47:58;9.85;;;4.22;;
28772;SDS011;15925;51.222;5.678;2024-02-21T02:50:25;8.93;;;3.60;;
28772;SDS011;15925;51.222;5.678;2024-02-21T02:52:52;13.48;;;4.25;;
28772;SDS011;15925;51.222;5.678;2024-02-21T02:55:18;20.88;;;4.57;;
28772;SDS011;15925;51.222;5.678;2024-02-21T02:57:43;13.85;;;4.13;;
28772;SDS011;15925;51.222;5.678;2024-02-21T03:00:13;21.80;;;4.57;;
28772;SDS011;15925;51.222;5.678;2024-02-21T03:02:41;11.90;;;3.85;;
28772;SDS011;15925;51.222;5.678;2024-02-21T03:05:20;19.15;;;4.63;;
28772;SDS011;15925;51.222;5.678;2024-02-21T03:07:47;9.90;;;3.90;;
28772;SDS011;15925;51.222;5.678;2024-02-21T03:10:14;8.30;;;4.10;;
28772;SDS011;15925;51.222;5.678;2024-02-21T03:12:41;9.73;;;4.20;;
28772;SDS011;15925;51.222;5.678;2024-02-21T03:15:07;14.65;;;4.35;;
28772;SDS011;15925;51.222;5.678;2024-02-21T03:17:33;26.77;;;4.40;;
28772;SDS011;15925;51.222;5.678;2024-02-21T03:20:00;21.40;;;4.78;;
28772;SDS011;15925;51.222;5.678;2024-02-21T03:22:30;15.13;;;4.13;;
28772;SDS011;15925;51.222;5.678;2024-02-21T03:24:57;17.80;;;3.92;;
28772;SDS011;15925;51.222;5.678;2024-02-21T03:27:23;17.37;;;3.23;;
28772;SDS011;15925;51.222;5.678;2024-02-21T03:29:49;35.13;;;5.00;;
28772;SDS011;15925;51.222;5.678;2024-02-21T03:32:14;16.73;;;4.03;;
28772;SDS011;15925;51.222;5.678;2024-02-21T03:34:40;17.23;;;3.77;;
28772;SDS011;15925;51.222;5.678;2024-02-21T03:37:06;19.67;;;3.60;;
28772;SDS011;15925;51.222;5.678;2024-02-21T03:39:32;12.70;;;3.73;;
28772;SDS011;15925;51.222;5.678;2024-02-21T03:41:58;13.57;;;3.67;;
28772;SDS011;15925;51.222;5.678;2024-02-21T03:44:25;7.57;;;3.30;;
28772;SDS011;15925;51.222;5.678;2024-02-21T03:46:52;13.73;;;3.30;;
28772;SDS011;15925;51.222;5.678;2024-02-21T03:49:18;7.25;;;2.60;;
28772;SDS011;15925;51.222;5.678;2024-02-21T03:51:44;14.93;;;3.97;;
28772;SDS011;15925;51.222;5.678;2024-02-21T03:54:09;12.73;;;3.60;;
28772;SDS011;15925;51.222;5.678;2024-02-21T03:56:38;5.00;;;2.00;;
28772;SDS011;15925;51.222;5.678;2024-02-21T03:59:05;19.33;;;3.95;;
28772;SDS011;15925;51.222;5.678;2024-02-21T04:01:33;19.60;;;3.28;;
28772;SDS011;15925;51.222;5.678;2024-02-21T04:04:01;18.48;;;3.78;;
28772;SDS011;15925;51.222;5.678;2024-02-21T04:06:27;18.75;;;3.50;;
28772;SDS011;15925;51.222;5.678;2024-02-21T04:08:53;12.48;;;3.85;;
28772;SDS011;15925;51.222;5.678;2024-02-21T04:11:19;7.53;;;3.03;;
28772;SDS011;15925;51.222;5.678;2024-02-21T04:13:45;5.40;;;2.60;;
28772;SDS011;15925;51.222;5.678;2024-02-21T04:16:14;12.98;;;4.18;;
28772;SDS011;15925;51.222;5.678;2024-02-21T04:18:40;10.15;;;2.83;;
28772;SDS011;15925;51.222;5.678;2024-02-21T04:21:07;14.98;;;3.58;;
28772;SDS011;15925;51.222;5.678;2024-02-21T04:23:33;11.27;;;3.00;;
28772;SDS011;15925;51.222;5.678;2024-02-21T04:25:59;12.63;;;4.10;;
28772;SDS011;15925;51.222;5.678;2024-02-21T04:28:24;7.43;;;2.30;;
28772;SDS011;15925;51.222;5.678;2024-02-21T04:30:50;16.40;;;3.10;;
28772;SDS011;15925;51.222;5.678;2024-02-21T04:33:16;11.03;;;4.03;;
28772;SDS011;15925;51.222;5.678;2024-02-21T04:35:41;10.97;;;3.63;;
28772;SDS011;15925;51.222;5.678;2024-02-21T04:38:07;5.97;;;3.23;;
28772;SDS011;15925;51.222;5.678;2024-02-21T04:40:33;8.40;;;3.10;;
28772;SDS011;15925;51.222;5.678;2024-02-21T04:42:59;8.87;;;4.13;;
28772;SDS011;15925;51.222;5.678;2024-02-21T04:45:25;6.90;;;2.55;;
28772;SDS011;15925;51.222;5.678;2024-02-21T04:47:50;15.97;;;4.83;;
28772;SDS011;15925;51.222;5.678;2024-02-21T04:50:16;9.97;;;3.33;;
28772;SDS011;15925;51.222;5.678;2024-02-21T04:52:42;13.17;;;4.03;;
28772;SDS011;15925;51.222;5.678;2024-02-21T04:55:08;6.88;;;2.83;;
28772;SDS011;15925;51.222;5.678;2024-02-21T04:57:34;18.67;;;3.73;;
28772;SDS011;15925;51.222;5.678;2024-02-21T05:00:00;13.13;;;4.80;;
28772;SDS011;15925;51.222;5.678;2024-02-21T05:02:26;10.73;;;3.30;;
28772;SDS011;15925;51.222;5.678;2024-02-21T05:04:52;8.07;;;3.00;;
28772;SDS011;15925;51.222;5.678;2024-02-21T05:07:18;7.63;;;2.80;;
28772;SDS011;15925;51.222;5.678;2024-02-21T05:09:45;6.03;;;3.33;;
28772;SDS011;15925;51.222;5.678;2024-02-21T05:12:11;7.10;;;3.17;;
28772;SDS011;15925;51.222;5.678;2024-02-21T05:14:37;7.45;;;3.10;;
28772;SDS011;15925;51.222;5.678;2024-02-21T05:17:03;9.70;;;3.33;;
28772;SDS011;15925;51.222;5.678;2024-02-21T05:21:55;6.80;;;3.20;;
28772;SDS011;15925;51.222;5.678;2024-02-21T05:24:20;8.67;;;3.70;;
28772;SDS011;15925;51.222;5.678;2024-02-21T05:26:46;18.90;;;2.88;;
28772;SDS011;15925;51.222;5.678;2024-02-21T05:29:12;11.73;;;3.17;;
28772;SDS011;15925;51.222;5.678;2024-02-21T05:34:16;9.18;;;3.85;;
28772;SDS011;15925;51.222;5.678;2024-02-21T05:36:42;15.05;;;3.22;;
28772;SDS011;15925;51.222;5.678;2024-02-21T05:39:09;12.10;;;3.08;;
28772;SDS011;15925;51.222;5.678;2024-02-21T05:41:35;13.80;;;3.28;;
28772;SDS011;15925;51.222;5.678;2024-02-21T05:44:01;12.00;;;4.22;;
28772;SDS011;15925;51.222;5.678;2024-02-21T05:46:26;5.63;;;2.77;;
28772;SDS011;15925;51.222;5.678;2024-02-21T05:48:53;12.55;;;3.63;;
28772;SDS011;15925;51.222;5.678;2024-02-21T05:51:18;7.30;;;3.05;;
28772;SDS011;15925;51.222;5.678;2024-02-21T05:53:44;10.27;;;3.67;;
28772;SDS011;15925;51.222;5.678;2024-02-21T05:56:10;15.98;;;3.50;;
28772;SDS011;15925;51.222;5.678;2024-02-21T05:58:37;13.15;;;3.47;;
28772;SDS011;15925;51.222;5.678;2024-02-21T06:01:03;9.88;;;3.30;;
28772;SDS011;15925;51.222;5.678;2024-02-21T06:03:30;12.80;;;3.72;;
28772;SDS011;15925;51.222;5.678;2024-02-21T06:05:56;5.88;;;2.35;;
28772;SDS011;15925;51.222;5.678;2024-02-21T06:08:21;6.93;;;2.93;;
28772;SDS011;15925;51.222;5.678;2024-02-21T06:10:47;9.73;;;3.13;;
28772;SDS011;15925;51.222;5.678;2024-02-21T06:13:13;7.97;;;3.25;;
28772;SDS011;15925;51.222;5.678;2024-02-21T06:15:39;9.70;;;3.33;;
28772;SDS011;15925;51.222;5.678;2024-02-21T06:18:05;10.53;;;5.03;;
28772;SDS011;15925;51.222;5.678;2024-02-21T06:20:31;7.17;;;4.00;;
28772;SDS011;15925;51.222;5.678;2024-02-21T06:22:57;7.47;;;2.83;;
28772;SDS011;15925;51.222;5.678;2024-02-21T06:25:22;13.85;;;4.45;;
28772;SDS011;15925;51.222;5.678;2024-02-21T06:27:48;6.13;;;2.57;;
28772;SDS011;15925;51.222;5.678;2024-02-21T06:30:14;7.63;;;3.43;;
28772;SDS011;15925;51.222;5.678;2024-02-21T06:32:40;17.90;;;2.70;;
28772;SDS011;15925;51.222;5.678;2024-02-21T06:35:05;10.93;;;2.97;;
28772;SDS011;15925;51.222;5.678;2024-02-21T06:37:31;17.73;;;3.70;;
28772;SDS011;15925;51.222;5.678;2024-02-21T06:39:57;16.23;;;2.97;;
28772;SDS011;15925;51.222;5.678;2024-02-21T06:42:26;11.55;;;3.38;;
28772;SDS011;15925;51.222;5.678;2024-02-21T06:44:52;9.25;;;3.00;;
28772;SDS011;15925;51.222;5.678;2024-02-21T06:47:18;14.10;;;3.10;;
28772;SDS011;15925;51.222;5.678;2024-02-21T06:49:48;21.20;;;3.13;;
28772;SDS011;15925;51.222;5.678;2024-02-21T06:52:16;4.78;;;2.92;;
28772;SDS011;15925;51.222;5.678;2024-02-21T06:54:42;18.27;;;3.55;;
28772;SDS011;15925;51.222;5.678;2024-02-21T06:57:08;7.23;;;2.67;;
28772;SDS011;15925;51.222;5.678;2024-02-21T06:59:34;8.80;;;3.73;;
28772;SDS011;15925;51.222;5.678;2024-02-21T07:02:00;8.83;;;2.93;;
28772;SDS011;15925;51.222;5.678;2024-02-21T07:04:26;6.07;;;2.53;;
28772;SDS011;15925;51.222;5.678;2024-02-21T07:06:52;10.85;;;3.30;;
28772;SDS011;15925;51.222;5.678;2024-02-21T07:09:18;15.98;;;3.70;;
28772;SDS011;15925;51.222;5.678;2024-02-21T07:11:44;3.63;;;2.08;;
28772;SDS011;15925;51.222;5.678;2024-02-21T07:14:09;8.90;;;2.97;;
28772;SDS011;15925;51.222;5.678;2024-02-21T07:16:35;7.43;;;2.20;;
28772;SDS011;15925;51.222;5.678;2024-02-21T07:19:01;8.13;;;2.77;;
28772;SDS011;15925;51.222;5.678;2024-02-21T07:21:27;7.40;;;2.88;;
28772;SDS011;15925;51.222;5.678;2024-02-21T07:23:53;6.47;;;2.73;;
28772;SDS011;15925;51.222;5.678;2024-02-21T07:26:19;8.70;;;2.97;;
28772;SDS011;15925;51.222;5.678;2024-02-21T07:28:45;6.80;;;2.83;;
28772;SDS011;15925;51.222;5.678;2024-02-21T07:31:11;12.30;;;3.05;;
28772;SDS011;15925;51.222;5.678;2024-02-21T07:33:37;7.80;;;2.53;;
28772;SDS011;15925;51.222;5.678;2024-02-21T07:36:06;6.70;;;2.80;;
28772;SDS011;15925;51.222;5.678;2024-02-21T07:38:35;8.90;;;2.58;;
28772;SDS011;15925;51.222;5.678;2024-02-21T07:41:01;6.50;;;2.60;;
28772;SDS011;15925;51.222;5.678;2024-02-21T07:43:28;4.88;;;2.75;;
28772;SDS011;15925;51.222;5.678;2024-02-21T07:45:53;5.93;;;3.03;;
28772;SDS011;15925;51.222;5.678;2024-02-21T07:48:22;5.80;;;3.13;;
28772;SDS011;15925;51.222;5.678;2024-02-21T07:50:51;12.38;;;3.45;;
28772;SDS011;15925;51.222;5.678;2024-02-21T07:53:17;9.53;;;3.27;;
28772;SDS011;15925;51.222;5.678;2024-02-21T07:55:43;5.70;;;2.60;;
28772;SDS011;15925;51.222;5.678;2024-02-21T07:58:09;8.10;;;3.03;;
28772;SDS011;15925;51.222;5.678;2024-02-21T08:00:34;10.30;;;2.67;;
28772;SDS011;15925;51.222;5.678;2024-02-21T08:03:00;3.97;;;2.07;;
28772;SDS011;15925;51.222;5.678;2024-02-21T08:05:26;7.70;;;3.13;;
28772;SDS011;15925;51.222;5.678;2024-02-21T08:07:52;7.50;;;2.90;;
28772;SDS011;15925;51.222;5.678;2024-02-21T08:10:17;6.63;;;1.60;;
28772;SDS011;15925;51.222;5.678;2024-02-21T08:12:43;6.43;;;2.38;;
28772;SDS011;15925;51.222;5.678;2024-02-21T08:15:09;3.90;;;2.33;;
28772;SDS011;15925;51.222;5.678;2024-02-21T08:17:37;4.10;;;2.30;;
28772;SDS011;15925;51.222;5.678;2024-02-21T08:20:03;5.80;;;2.83;;
28772;SDS011;15925;51.222;5.678;2024-02-21T08:22:31;6.32;;;2.90;;
28772;SDS011;15925;51.222;5.678;2024-02-21T08:24:57;10.70;;;2.83;;
28772;SDS011;15925;51.222;5.678;2024-02-21T08:27:23;5.50;;;2.40;;
28772;SDS011;15925;51.222;5.678;2024-02-21T08:29:49;8.30;;;2.33;;
28772;SDS011;15925;51.222;5.678;2024-02-21T08:32:15;10.07;;;2.60;;
28772;SDS011;15925;51.222;5.678;2024-02-21T08:34:40;11.13;;;2.67;;
28772;SDS011;15925;51.222;5.678;2024-02-21T08:37:06;5.43;;;2.03;;
28772;SDS011;15925;51.222;5.678;2024-02-21T08:41:58;8.20;;;2.47;;
28772;SDS011;15925;51.222;5.678;2024-02-21T08:44:24;20.50;;;2.40;;
28772;SDS011;15925;51.222;5.678;2024-02-21T08:46:51;6.88;;;2.58;;
28772;SDS011;15925;51.222;5.678;2024-02-21T08:49:17;3.90;;;2.57;;
28772;SDS011;15925;51.222;5.678;2024-02-21T08:51:42;11.53;;;2.70;;
28772;SDS011;15925;51.222;5.678;2024-02-21T08:54:10;2.88;;;1.55;;
28772;SDS011;15925;51.222;5.678;2024-02-21T08:56:35;7.87;;;3.10;;
28772;SDS011;15925;51.222;5.678;2024-02-21T08:59:01;6.07;;;2.07;;
28772;SDS011;15925;51.222;5.678;2024-02-21T09:01:27;8.95;;;2.58;;
28772;SDS011;15925;51.222;5.678;2024-02-21T09:03:54;6.43;;;2.28;;
28772;SDS011;15925;51.222;5.678;2024-02-21T09:06:21;13.60;;;2.55;;
28772;SDS011;15925;51.222;5.678;2024-02-21T09:08:47;8.63;;;2.50;;
28772;SDS011;15925;51.222;5.678;2024-02-21T09:11:14;6.80;;;3.03;;
28772;SDS011;15925;51.222;5.678;2024-02-21T09:13:40;6.57;;;2.22;;
28772;SDS011;15925;51.222;5.678;2024-02-21T09:16:06;7.60;;;2.08;;
28772;SDS011;15925;51.222;5.678;2024-02-21T09:18:31;6.80;;;2.78;;
28772;SDS011;15925;51.222;5.678;2024-02-21T09:20:57;4.07;;;1.77;;
28772;SDS011;15925;51.222;5.678;2024-02-21T09:23:26;7.73;;;2.97;;
28772;SDS011;15925;51.222;5.678;2024-02-21T09:25:52;7.65;;;2.17;;
28772;SDS011;15925;51.222;5.678;2024-02-21T09:28:18;3.70;;;2.33;;
28772;SDS011;15925;51.222;5.678;2024-02-21T09:30:44;9.00;;;2.78;;
28772;SDS011;15925;51.222;5.678;2024-02-21T09:35:36;4.68;;;1.75;;
28772;SDS011;15925;51.222;5.678;2024-02-21T09:38:02;2.53;;;1.60;;
28772;SDS011;15925;51.222;5.678;2024-02-21T09:40:28;9.00;;;1.73;;
28772;SDS011;15925;51.222;5.678;2024-02-21T09:43:00;3.87;;;1.37;;
28772;SDS011;15925;51.222;5.678;2024-02-21T09:45:35;7.05;;;1.63;;
28772;SDS011;15925;51.222;5.678;2024-02-21T09:50:46;8.30;;;2.00;;
28772;SDS011;15925;51.222;5.678;2024-02-21T09:53:14;4.80;;;2.10;;
28772;SDS011;15925;51.222;5.678;2024-02-21T09:55:40;7.35;;;2.50;;
28772;SDS011;15925;51.222;5.678;2024-02-21T10:00:33;5.88;;;2.33;;
28772;SDS011;15925;51.222;5.678;2024-02-21T10:03:00;5.65;;;1.80;;
28772;SDS011;15925;51.222;5.678;2024-02-21T10:05:26;5.57;;;2.00;;
28772;SDS011;15925;51.222;5.678;2024-02-21T10:07:52;9.15;;;2.05;;
28772;SDS011;15925;51.222;5.678;2024-02-21T10:10:19;4.45;;;1.77;;
28772;SDS011;15925;51.222;5.678;2024-02-21T10:12:53;10.23;;;2.03;;
28772;SDS011;15925;51.222;5.678;2024-02-21T10:15:25;19.40;;;2.88;;
28772;SDS011;15925;51.222;5.678;2024-02-21T10:17:58;8.70;;;2.35;;
28772;SDS011;15925;51.222;5.678;2024-02-21T10:20:24;15.73;;;2.28;;
28772;SDS011;15925;51.222;5.678;2024-02-21T10:22:59;7.37;;;1.90;;
28772;SDS011;15925;51.222;5.678;2024-02-21T10:25:36;7.35;;;3.15;;
28772;SDS011;15925;51.222;5.678;2024-02-21T10:28:06;5.60;;;2.17;;
28772;SDS011;15925;51.222;5.678;2024-02-21T10:30:32;3.30;;;1.85;;
28772;SDS011;15925;51.222;5.678;2024-02-21T10:32:58;7.28;;;2.53;;
28772;SDS011;15925;51.222;5.678;2024-02-21T10:37:56;3.78;;;1.70;;
28772;SDS011;15925;51.222;5.678;2024-02-21T10:40:25;9.07;;;2.13;;
28772;SDS011;15925;51.222;5.678;2024-02-21T10:42:59;6.22;;;1.70;;
28772;SDS011;15925;51.222;5.678;2024-02-21T10:45:35;9.43;;;2.33;;
28772;SDS011;15925;51.222;5.678;2024-02-21T10:50:45;28.85;;;2.42;;
28772;SDS011;15925;51.222;5.678;2024-02-21T10:53:29;12.40;;;2.55;;
28772;SDS011;15925;51.222;5.678;2024-02-21T10:58:52;8.40;;;2.25;;
28772;SDS011;15925;51.222;5.678;2024-02-21T11:03:44;3.50;;;1.73;;
28772;SDS011;15925;51.222;5.678;2024-02-21T11:06:12;3.42;;;1.50;;
28772;SDS011;15925;51.222;5.678;2024-02-21T11:08:38;4.45;;;1.98;;
28772;SDS011;15925;51.222;5.678;2024-02-21T11:11:04;3.07;;;1.87;;
28772;SDS011;15925;51.222;5.678;2024-02-21T11:13:31;14.27;;;2.08;;
28772;SDS011;15925;51.222;5.678;2024-02-21T11:16:09;3.05;;;1.45;;
28772;SDS011;15925;51.222;5.678;2024-02-21T11:18:39;9.03;;;1.67;;
28772;SDS011;15925;51.222;5.678;2024-02-21T11:21:05;8.13;;;1.90;;
28772;SDS011;15925;51.222;5.678;2024-02-21T11:23:31;10.65;;;1.80;;
28772;SDS011;15925;51.222;5.678;2024-02-21T11:26:09;8.85;;;1.80;;
28772;SDS011;15925;51.222;5.678;2024-02-21T11:28:44;10.40;;;2.25;;
28772;SDS011;15925;51.222;5.678;2024-02-21T11:31:13;7.47;;;2.15;;
28772;SDS011;15925;51.222;5.678;2024-02-21T11:33:40;3.55;;;2.30;;
28772;SDS011;15925;51.222;5.678;2024-02-21T11:36:07;9.13;;;2.50;;
28772;SDS011;15925;51.222;5.678;2024-02-21T11:38:34;3.83;;;2.03;;
28772;SDS011;15925;51.222;5.678;2024-02-21T11:40:59;11.37;;;3.00;;
28772;SDS011;15925;51.222;5.678;2024-02-21T11:43:25;7.37;;;2.53;;
28772;SDS011;15925;51.222;5.678;2024-02-21T11:45:58;5.77;;;2.87;;
28772;SDS011;15925;51.222;5.678;2024-02-21T11:48:25;12.18;;;2.45;;
28772;SDS011;15925;51.222;5.678;2024-02-21T11:50:54;10.18;;;1.95;;
28772;SDS011;15925;51.222;5.678;2024-02-21T11:53:21;3.80;;;1.83;;
28772;SDS011;15925;51.222;5.678;2024-02-21T11:55:47;2.65;;;1.85;;
28772;SDS011;15925;51.222;5.678;2024-02-21T11:58:13;3.17;;;1.87;;
28772;SDS011;15925;51.222;5.678;2024-02-21T12:03:05;5.68;;;2.30;;
28772;SDS011;15925;51.222;5.678;2024-02-21T12:05:32;7.85;;;2.58;;
28772;SDS011;15925;51.222;5.678;2024-02-21T12:07:57;6.83;;;2.40;;
28772;SDS011;15925;51.222;5.678;2024-02-21T12:10:25;14.55;;;2.70;;
28772;SDS011;15925;51.222;5.678;2024-02-21T12:13:05;10.18;;;2.08;;
28772;SDS011;15925;51.222;5.678;2024-02-21T12:15:34;3.55;;;1.60;;
28772;SDS011;15925;51.222;5.678;2024-02-21T12:18:00;2.93;;;1.80;;
28772;SDS011;15925;51.222;5.678;2024-02-21T12:20:26;6.63;;;2.13;;
28772;SDS011;15925;51.222;5.678;2024-02-21T12:22:52;9.63;;;1.83;;
28772;SDS011;15925;51.222;5.678;2024-02-21T12:25:23;10.60;;;1.35;;
28772;SDS011;15925;51.222;5.678;2024-02-21T12:27:51;16.10;;;2.38;;
28772;SDS011;15925;51.222;5.678;2024-02-21T12:30:17;5.07;;;1.90;;
28772;SDS011;15925;51.222;5.678;2024-02-21T12:32:44;5.00;;;1.58;;
28772;SDS011;15925;51.222;5.678;2024-02-21T12:35:10;6.70;;;1.88;;
28772;SDS011;15925;51.222;5.678;2024-02-21T12:37:36;8.47;;;2.90;;
28772;SDS011;15925;51.222;5.678;2024-02-21T12:40:04;2.83;;;1.52;;
28772;SDS011;15925;51.222;5.678;2024-02-21T12:42:32;3.13;;;1.80;;
28772;SDS011;15925;51.222;5.678;2024-02-21T12:44:58;5.10;;;1.65;;
28772;SDS011;15925;51.222;5.678;2024-02-21T12:47:24;5.82;;;2.17;;
28772;SDS011;15925;51.222;5.678;2024-02-21T12:49:54;2.60;;;1.60;;
28772;SDS011;15925;51.222;5.678;2024-02-21T12:52:20;6.18;;;2.08;;
28772;SDS011;15925;51.222;5.678;2024-02-21T12:54:46;13.63;;;1.73;;
28772;SDS011;15925;51.222;5.678;2024-02-21T12:57:12;3.53;;;1.52;;
28772;SDS011;15925;51.222;5.678;2024-02-21T12:59:38;17.10;;;2.03;;
28772;SDS011;15925;51.222;5.678;2024-02-21T13:02:04;9.30;;;1.63;;
28772;SDS011;15925;51.222;5.678;2024-02-21T13:04:30;5.43;;;1.55;;
28772;SDS011;15925;51.222;5.678;2024-02-21T13:06:55;3.40;;;1.63;;
28772;SDS011;15925;51.222;5.678;2024-02-21T13:09:21;5.00;;;1.73;;
28772;SDS011;15925;51.222;5.678;2024-02-21T13:11:47;5.23;;;1.63;;
28772;SDS011;15925;51.222;5.678;2024-02-21T13:14:13;2.58;;;1.42;;
28772;SDS011;15925;51.222;5.678;2024-02-21T13:16:38;12.93;;;2.10;;
28772;SDS011;15925;51.222;5.678;2024-02-21T13:19:07;5.00;;;1.48;;
28772;SDS011;15925;51.222;5.678;2024-02-21T13:21:36;6.32;;;1.80;;
28772;SDS011;15925;51.222;5.678;2024-02-21T13:24:02;2.25;;;1.50;;
28772;SDS011;15925;51.222;5.678;2024-02-21T13:26:28;6.95;;;1.85;;
28772;SDS011;15925;51.222;5.678;2024-02-21T13:28:54;14.70;;;2.28;;
28772;SDS011;15925;51.222;5.678;2024-02-21T13:31:20;2.72;;;1.60;;
28772;SDS011;15925;51.222;5.678;2024-02-21T13:33:46;3.97;;;2.08;;
28772;SDS011;15925;51.222;5.678;2024-02-21T13:36:12;11.63;;;1.70;;
28772;SDS011;15925;51.222;5.678;2024-02-21T13:38:38;6.55;;;1.85;;
28772;SDS011;15925;51.222;5.678;2024-02-21T13:41:07;2.15;;;1.02;;
28772;SDS011;15925;51.222;5.678;2024-02-21T13:43:33;10.88;;;1.65;;
28772;SDS011;15925;51.222;5.678;2024-02-21T13:46:00;12.95;;;1.90;;
28772;SDS011;15925;51.222;5.678;2024-02-21T13:48:34;3.30;;;1.40;;
28772;SDS011;15925;51.222;5.678;2024-02-21T13:51:00;3.20;;;0.70;;
28772;SDS011;15925;51.222;5.678;2024-02-21T13:53:27;7.43;;;0.90;;
28772;SDS011;15925;51.222;5.678;2024-02-21T13:55:53;2.45;;;1.17;;
28772;SDS011;15925;51.222;5.678;2024-02-21T13:58:19;1.53;;;0.70;;
28772;SDS011;15925;51.222;5.678;2024-02-21T14:00:46;7.85;;;0.65;;
28772;SDS011;15925;51.222;5.678;2024-02-21T14:03:11;1.50;;;1.00;;
28772;SDS011;15925;51.222;5.678;2024-02-21T14:05:37;5.63;;;1.10;;
28772;SDS011;15925;51.222;5.678;2024-02-21T14:08:05;7.47;;;1.10;;
28772;SDS011;15925;51.222;5.678;2024-02-21T14:10:31;2.95;;;1.42;;
28772;SDS011;15925;51.222;5.678;2024-02-21T14:12:58;7.05;;;1.88;;
28772;SDS011;15925;51.222;5.678;2024-02-21T14:15:24;2.30;;;0.93;;
28772;SDS011;15925;51.222;5.678;2024-02-21T14:17:50;16.37;;;1.83;;
28772;SDS011;15925;51.222;5.678;2024-02-21T14:20:16;5.77;;;1.40;;
28772;SDS011;15925;51.222;5.678;2024-02-21T14:22:41;4.97;;;1.25;;
28772;SDS011;15925;51.222;5.678;2024-02-21T14:25:07;2.17;;;1.00;;
28772;SDS011;15925;51.222;5.678;2024-02-21T14:27:33;5.03;;;1.65;;
28772;SDS011;15925;51.222;5.678;2024-02-21T14:30:02;6.30;;;1.45;;
28772;SDS011;15925;51.222;5.678;2024-02-21T14:32:28;2.65;;;0.95;;
28772;SDS011;15925;51.222;5.678;2024-02-21T14:34:54;3.40;;;1.10;;
28772;SDS011;15925;51.222;5.678;2024-02-21T14:37:20;2.37;;;0.93;;
28772;SDS011;15925;51.222;5.678;2024-02-21T14:42:12;5.55;;;1.60;;
28772;SDS011;15925;51.222;5.678;2024-02-21T14:44:41;2.97;;;1.20;;
28772;SDS011;15925;51.222;5.678;2024-02-21T14:47:07;1.02;;;0.60;;
28772;SDS011;15925;51.222;5.678;2024-02-21T14:49:33;4.17;;;1.30;;
28772;SDS011;15925;51.222;5.678;2024-02-21T14:51:58;2.30;;;0.70;;
28772;SDS011;15925;51.222;5.678;2024-02-21T14:54:24;14.07;;;1.97;;
28772;SDS011;15925;51.222;5.678;2024-02-21T14:56:50;12.85;;;1.55;;
28772;SDS011;15925;51.222;5.678;2024-02-21T14:59:16;7.63;;;0.90;;
28772;SDS011;15925;51.222;5.678;2024-02-21T15:01:42;7.07;;;1.20;;
28772;SDS011;15925;51.222;5.678;2024-02-21T15:04:08;9.07;;;1.53;;
28772;SDS011;15925;51.222;5.678;2024-02-21T15:06:33;3.47;;;0.90;;
28772;SDS011;15925;51.222;5.678;2024-02-21T15:09:02;7.85;;;2.08;;
28772;SDS011;15925;51.222;5.678;2024-02-21T15:11:29;4.85;;;1.40;;
28772;SDS011;15925;51.222;5.678;2024-02-21T15:13:57;5.38;;;0.90;;
28772;SDS011;15925;51.222;5.678;2024-02-21T15:16:23;2.73;;;1.10;;